Stout, Ohio
Current Conditions -  °F | °C
As of 7:15 PM on Sunday 23 Nov 2014 (Local Time) from KFGX Reporting Station
Moderate Rain Moderate Rain  
Wind Chill: 54°   Ceiling: 7500
Heat Index: 54°   Visibility: 5mi
Dew Point: 52°   Wind: 21mph
Humidity: 92%   Direction: 140°SE
Pressure: 29.53"   Gusts: 28mph
Location:  38.66°N, 83.38°W
Report Text: KFGX 240015Z AUTO 14018G24KT 5SM RA SCT045 BKN075 OVC095 12/11 A2953 RMK AO2 T01230110
Loading
Personal Weather Stations






























Interactive Weather Map New forecast layout! Learn more

10-Day Weather Forecast

Advertisements
Track Severe Weather on mobile